createdAt,value
2022-07-26T00:00:35.051Z,0.00
2022-07-26T00:01:35.120Z,0.00
2022-07-26T00:02:35.208Z,0.00
2022-07-26T00:03:36.100Z,0.00
2022-07-26T00:04:35.215Z,0.00
2022-07-26T00:05:35.282Z,0.00
2022-07-26T00:06:35.319Z,0.00
2022-07-26T00:07:36.301Z,0.00
2022-07-26T00:08:34.372Z,0.00
2022-07-26T00:09:34.413Z,0.00
2022-07-26T00:10:34.462Z,0.00
2022-07-26T00:11:34.512Z,0.00
2022-07-26T00:12:34.543Z,0.00
2022-07-26T00:13:34.604Z,0.00
2022-07-26T00:14:34.675Z,0.00
2022-07-26T00:15:34.744Z,0.00
2022-07-26T00:16:34.844Z,0.00
2022-07-26T00:17:34.852Z,0.00
2022-07-26T00:18:34.911Z,0.00
2022-07-26T00:19:34.963Z,0.00
2022-07-26T00:20:35.022Z,0.00
2022-07-26T00:22:35.131Z,0.00
2022-07-26T00:23:34.144Z,0.00
2022-07-26T00:24:35.636Z,0.00
2022-07-26T00:26:34.333Z,0.00
2022-07-26T00:27:34.384Z,0.00
2022-07-26T00:28:34.439Z,0.00
2022-07-26T00:29:34.510Z,0.00
2022-07-26T00:30:34.554Z,0.00
2022-07-26T00:31:34.690Z,0.00
2022-07-26T00:32:34.667Z,0.00
2022-07-26T00:33:35.656Z,0.00
2022-07-26T00:34:34.747Z,0.00
2022-07-26T00:35:34.810Z,0.00
2022-07-26T00:36:34.855Z,0.00
2022-07-26T00:37:34.906Z,0.00
2022-07-26T00:38:34.944Z,0.00
2022-07-26T00:39:33.966Z,0.00
2022-07-26T00:40:34.048Z,0.00
2022-07-26T00:41:34.086Z,0.00
2022-07-26T00:42:34.158Z,0.00
2022-07-26T00:43:34.135Z,0.00
2022-07-26T00:44:34.153Z,0.00
2022-07-26T00:45:34.161Z,0.00
2022-07-26T00:46:34.249Z,0.00
2022-07-26T00:47:34.219Z,0.00
2022-07-26T00:48:34.321Z,0.00
2022-07-26T00:49:34.255Z,0.00
2022-07-26T00:50:34.315Z,0.00
2022-07-26T00:51:34.338Z,0.00
2022-07-26T00:52:34.397Z,0.00
2022-07-26T00:53:34.401Z,0.00
2022-07-26T00:54:34.456Z,0.00
2022-07-26T00:55:34.511Z,0.00
2022-07-26T00:56:34.571Z,0.00
2022-07-26T00:57:34.607Z,0.00
2022-07-26T00:58:34.652Z,0.00
2022-07-26T00:59:34.697Z,0.00
2022-07-26T01:00:33.699Z,0.00
2022-07-26T01:02:33.817Z,0.00
2022-07-26T01:03:38.375Z,0.00
2022-07-26T01:04:34.842Z,0.00
2022-07-26T01:05:33.902Z,0.00
2022-07-26T01:06:33.939Z,0.00
2022-07-26T01:07:33.990Z,0.00
2022-07-26T01:08:36.010Z,0.00
2022-07-26T01:09:34.119Z,0.00
2022-07-26T01:10:34.161Z,0.00
2022-07-26T01:11:34.206Z,0.00
2022-07-26T01:12:34.237Z,0.00
2022-07-26T01:13:35.566Z,0.00
2022-07-26T01:14:34.328Z,0.00
2022-07-26T01:15:34.347Z,0.00
2022-07-26T01:16:34.453Z,0.00
2022-07-26T01:17:34.898Z,0.00
2022-07-26T01:18:33.416Z,0.00
2022-07-26T01:19:33.426Z,0.00
2022-07-26T01:20:33.471Z,0.00
2022-07-26T01:21:33.499Z,0.00
2022-07-26T01:22:33.523Z,0.00
2022-07-26T01:23:33.563Z,0.00
2022-07-26T01:24:33.595Z,0.00
2022-07-26T01:25:33.619Z,0.00
2022-07-26T01:26:34.631Z,0.00
2022-07-26T01:27:34.261Z,0.00
2022-07-26T01:28:33.685Z,0.00
2022-07-26T01:29:35.914Z,0.00
2022-07-26T01:30:33.727Z,0.00
2022-07-26T01:31:33.871Z,0.00
2022-07-26T01:32:33.765Z,0.00
2022-07-26T01:33:34.744Z,0.00
2022-07-26T01:34:33.793Z,0.00
2022-07-26T01:36:33.802Z,0.00
2022-07-26T01:37:33.799Z,0.00
2022-07-26T01:38:33.275Z,0.00
2022-07-26T01:39:33.317Z,0.00
2022-07-26T01:40:33.336Z,0.00
2022-07-26T01:41:37.740Z,0.00
2022-07-26T01:42:33.407Z,0.00
2022-07-26T01:43:33.435Z,0.00
2022-07-26T01:44:33.465Z,0.00
2022-07-26T01:46:33.514Z,0.00
2022-07-26T01:47:33.552Z,0.00
2022-07-26T01:48:33.659Z,0.00
2022-07-26T01:49:33.619Z,0.00
2022-07-26T01:50:33.638Z,0.00
2022-07-26T01:51:33.678Z,0.00
2022-07-26T01:52:33.724Z,0.00
2022-07-26T01:53:33.768Z,0.00
2022-07-26T01:54:33.797Z,0.00
2022-07-26T01:55:33.836Z,0.00
2022-07-26T01:56:33.028Z,0.00
2022-07-26T01:57:33.050Z,0.00
2022-07-26T01:58:33.112Z,0.00
2022-07-26T01:59:32.987Z,0.00
2022-07-26T02:00:33.129Z,0.00
2022-07-26T02:02:34.224Z,0.00
2022-07-26T02:03:33.079Z,0.00
2022-07-26T02:04:33.147Z,0.00
2022-07-26T02:05:33.111Z,0.00
2022-07-26T02:06:33.199Z,0.00
2022-07-26T02:07:33.167Z,0.00
2022-07-26T02:08:33.215Z,0.00
2022-07-26T02:09:39.626Z,0.00
2022-07-26T02:10:34.290Z,0.00
2022-07-26T02:11:33.353Z,0.00
2022-07-26T02:12:33.351Z,0.00
2022-07-26T02:13:33.412Z,0.00
2022-07-26T02:14:33.443Z,0.00
2022-07-26T02:15:33.560Z,0.00
2022-07-26T02:16:33.531Z,0.00
2022-07-26T02:17:33.579Z,0.00
2022-07-26T02:18:33.621Z,0.00
2022-07-26T02:19:32.634Z,0.00
2022-07-26T02:20:32.683Z,0.00
2022-07-26T02:21:32.725Z,0.00
2022-07-26T02:22:32.791Z,0.00
2022-07-26T02:23:32.809Z,0.00
2022-07-26T02:24:32.662Z,0.00
2022-07-26T02:25:32.725Z,0.00
2022-07-26T02:26:34.734Z,0.00
2022-07-26T02:29:32.594Z,0.00
2022-07-26T02:30:32.621Z,0.00
2022-07-26T02:31:32.779Z,0.00
2022-07-26T02:33:32.743Z,0.00
2022-07-26T02:34:34.065Z,0.00
2022-07-26T02:35:32.575Z,0.00
2022-07-26T02:36:32.634Z,0.00
2022-07-26T02:37:32.490Z,0.00
2022-07-26T02:38:33.588Z,0.00
2022-07-26T02:39:32.605Z,0.00
2022-07-26T02:40:32.678Z,0.00
2022-07-26T02:41:32.723Z,0.00
2022-07-26T02:42:32.767Z,0.00
2022-07-26T02:43:32.846Z,0.00
2022-07-26T02:44:32.435Z,0.00
2022-07-26T02:45:32.488Z,0.00
2022-07-26T02:46:32.625Z,0.00
2022-07-26T02:47:32.646Z,0.00
2022-07-26T02:48:32.884Z,0.00
2022-07-26T02:49:32.834Z,0.00
2022-07-26T02:50:32.918Z,0.00
2022-07-26T02:51:33.022Z,0.02
2022-07-26T02:52:33.098Z,0.02
2022-07-26T02:53:33.202Z,0.02
2022-07-26T02:54:32.235Z,0.02
2022-07-26T02:55:32.360Z,0.02
2022-07-26T02:56:32.409Z,0.02
2022-07-26T02:57:45.554Z,0.01
2022-07-26T02:58:33.558Z,0.01
2022-07-26T02:59:32.649Z,0.01
2022-07-26T03:00:32.728Z,0.01
2022-07-26T03:01:32.899Z,0.03
2022-07-26T03:02:32.928Z,0.03
2022-07-26T03:03:32.967Z,0.02
2022-07-26T03:04:32.009Z,0.05
2022-07-26T03:05:32.101Z,0.03
2022-07-26T03:06:32.361Z,0.03
2022-07-26T03:07:32.252Z,0.04
2022-07-26T03:08:32.299Z,0.15
2022-07-26T03:09:32.352Z,0.04
2022-07-26T03:10:32.390Z,0.17
2022-07-26T03:11:32.460Z,0.13
2022-07-26T03:12:32.520Z,0.06
2022-07-26T03:13:32.582Z,0.25
2022-07-26T03:14:32.639Z,0.14
2022-07-26T03:15:32.713Z,0.09
2022-07-26T03:16:32.790Z,0.09
2022-07-26T03:17:32.809Z,0.13
2022-07-26T03:18:32.871Z,0.17
2022-07-26T03:19:33.881Z,0.15
2022-07-26T03:20:31.949Z,0.18
2022-07-26T03:21:32.013Z,0.19
2022-07-26T03:22:32.113Z,0.33
2022-07-26T03:23:32.141Z,0.20
2022-07-26T03:24:32.160Z,0.33
2022-07-26T03:25:32.225Z,0.40
2022-07-26T03:26:33.234Z,0.44
2022-07-26T03:27:32.283Z,0.47
2022-07-26T03:28:32.334Z,0.67
2022-07-26T03:29:32.377Z,0.69
2022-07-26T03:30:32.433Z,0.93
2022-07-26T03:31:32.533Z,0.91
2022-07-26T03:32:32.565Z,1.03
2022-07-26T03:33:32.623Z,1.11
2022-07-26T03:34:32.633Z,1.32
2022-07-26T03:35:36.595Z,1.58
2022-07-26T03:36:32.711Z,1.83
2022-07-26T03:37:45.036Z,2.06
2022-07-26T03:38:32.826Z,2.21
2022-07-26T03:39:31.867Z,2.30
2022-07-26T03:40:31.916Z,2.38
2022-07-26T03:41:31.986Z,2.51
2022-07-26T03:42:32.047Z,2.67
2022-07-26T03:43:32.135Z,2.90
2022-07-26T03:44:32.208Z,3.21
2022-07-26T03:45:32.255Z,3.55
2022-07-26T03:46:32.425Z,3.85
2022-07-26T03:47:32.375Z,4.15
2022-07-26T03:48:32.495Z,4.55
2022-07-26T03:49:31.457Z,4.96
2022-07-26T03:50:31.687Z,5.45
2022-07-26T03:51:31.578Z,6.26
2022-07-26T03:52:31.610Z,7.10
2022-07-26T03:53:31.679Z,7.89
2022-07-26T03:54:31.727Z,8.56
2022-07-26T03:55:31.791Z,9.13
2022-07-26T03:56:31.920Z,10.01
2022-07-26T03:57:31.857Z,11.33
2022-07-26T03:58:31.951Z,13.05
2022-07-26T03:59:32.016Z,15.00
2022-07-26T04:00:32.292Z,16.92
2022-07-26T04:01:32.190Z,18.67
2022-07-26T04:02:32.291Z,19.99
2022-07-26T04:03:32.249Z,20.86
2022-07-26T04:04:31.268Z,22.78
2022-07-26T04:05:31.303Z,25.62
2022-07-26T04:06:31.342Z,27.94
2022-07-26T04:07:31.441Z,28.83
2022-07-26T04:08:31.455Z,27.14
2022-07-26T04:09:31.519Z,24.91
2022-07-26T04:10:31.580Z,23.41
2022-07-26T04:11:31.653Z,22.37
2022-07-26T04:12:31.721Z,21.52
2022-07-26T04:13:31.790Z,20.77
2022-07-26T04:14:31.840Z,20.40
2022-07-26T04:15:31.912Z,20.83
2022-07-26T04:16:31.999Z,24.79
2022-07-26T04:17:32.021Z,27.93
2022-07-26T04:18:32.082Z,29.67
2022-07-26T04:19:31.082Z,30.53
2022-07-26T04:20:31.126Z,30.60
2022-07-26T04:21:31.185Z,29.71
2022-07-26T04:22:31.254Z,28.42
2022-07-26T04:23:31.338Z,27.68
2022-07-26T04:24:31.383Z,25.91
2022-07-26T04:25:41.046Z,28.19
2022-07-26T04:26:32.494Z,31.54
2022-07-26T04:27:31.541Z,34.92
2022-07-26T04:28:31.598Z,37.83
2022-07-26T04:29:31.677Z,41.02
2022-07-26T04:30:31.759Z,43.91
2022-07-26T04:31:36.144Z,45.03
2022-07-26T04:32:31.835Z,44.91
2022-07-26T04:33:30.883Z,44.01
2022-07-26T04:34:32.005Z,44.03
2022-07-26T04:35:30.996Z,45.95
2022-07-26T04:36:31.066Z,47.58
2022-07-26T04:37:31.114Z,48.97
2022-07-26T04:38:31.179Z,52.18
2022-07-26T04:39:32.253Z,56.19
2022-07-26T04:40:31.280Z,59.27
2022-07-26T04:41:31.316Z,63.68
2022-07-26T04:42:31.337Z,70.18
2022-07-26T04:43:31.386Z,76.79
2022-07-26T04:44:31.484Z,80.21
2022-07-26T04:45:31.567Z,78.30
2022-07-26T04:46:31.634Z,72.42
2022-07-26T04:47:31.674Z,67.15
2022-07-26T04:48:30.744Z,65.98
2022-07-26T04:49:30.786Z,67.31
2022-07-26T04:50:30.848Z,67.58
2022-07-26T04:51:31.118Z,66.72
2022-07-26T04:52:30.997Z,66.93
2022-07-26T04:53:31.064Z,70.77
2022-07-26T04:54:31.105Z,76.97
2022-07-26T04:55:31.181Z,81.80
2022-07-26T04:56:31.241Z,84.07
2022-07-26T04:57:31.309Z,85.38
2022-07-26T04:58:31.373Z,85.18
2022-07-26T04:59:32.724Z,83.35
2022-07-26T05:00:31.519Z,83.47
2022-07-26T05:01:30.594Z,84.21
2022-07-26T05:02:30.802Z,83.14
2022-07-26T05:03:30.677Z,84.10
2022-07-26T05:04:31.707Z,83.92
2022-07-26T05:05:30.847Z,87.24
2022-07-26T05:06:30.871Z,88.32
2022-07-26T05:07:30.940Z,88.83
2022-07-26T05:08:30.989Z,89.07
2022-07-26T05:09:31.029Z,89.18
2022-07-26T05:10:31.080Z,91.37
2022-07-26T05:11:31.140Z,96.97
2022-07-26T05:12:31.182Z,100.48
2022-07-26T05:13:31.309Z,101.45
2022-07-26T05:14:31.259Z,100.12
2022-07-26T05:15:34.999Z,97.16
2022-07-26T05:16:30.369Z,97.48
2022-07-26T05:17:30.366Z,98.64
2022-07-26T05:18:31.959Z,100.87
2022-07-26T05:19:31.464Z,101.28
2022-07-26T05:20:30.545Z,100.66
2022-07-26T05:21:30.589Z,103.33
2022-07-26T05:22:30.664Z,107.59
2022-07-26T05:23:30.710Z,112.13
2022-07-26T05:24:30.757Z,117.38
2022-07-26T05:25:30.812Z,123.08
2022-07-26T05:26:30.869Z,127.54
2022-07-26T05:27:30.918Z,135.02
2022-07-26T05:28:30.990Z,145.13
2022-07-26T05:29:31.065Z,154.22
2022-07-26T05:30:31.149Z,157.90
2022-07-26T05:31:30.262Z,156.74
2022-07-26T05:32:30.191Z,156.33
2022-07-26T05:33:30.244Z,154.06
2022-07-26T05:34:30.336Z,145.58
2022-07-26T05:35:30.374Z,146.03
2022-07-26T05:36:30.440Z,160.29
2022-07-26T05:37:30.486Z,176.28
2022-07-26T05:38:30.534Z,185.70
2022-07-26T05:39:30.620Z,195.18
2022-07-26T05:40:30.667Z,206.06
2022-07-26T05:41:30.722Z,217.09
2022-07-26T05:42:30.795Z,226.45
2022-07-26T05:43:40.731Z,231.04
2022-07-26T05:44:31.945Z,230.07
2022-07-26T05:45:31.044Z,229.89
2022-07-26T05:46:30.096Z,234.12
2022-07-26T05:47:30.064Z,244.74
2022-07-26T05:48:30.149Z,256.58
2022-07-26T05:49:40.116Z,265.85
2022-07-26T05:50:31.249Z,275.08
2022-07-26T05:51:30.277Z,280.51
2022-07-26T05:52:30.336Z,277.55
2022-07-26T05:53:30.398Z,274.15
2022-07-26T05:54:30.454Z,276.98
2022-07-26T05:55:30.532Z,284.58
2022-07-26T05:56:31.610Z,294.39
2022-07-26T05:57:30.606Z,298.04
2022-07-26T05:58:30.670Z,297.65
2022-07-26T05:59:30.738Z,302.12
2022-07-26T06:00:29.778Z,305.24
2022-07-26T06:01:29.859Z,307.32
2022-07-26T06:02:30.025Z,311.16
2022-07-26T06:03:30.011Z,315.88
2022-07-26T06:04:30.127Z,319.66
2022-07-26T06:05:30.098Z,314.08
2022-07-26T06:06:30.184Z,297.42
2022-07-26T06:07:30.222Z,278.94
2022-07-26T06:08:31.252Z,273.57
2022-07-26T06:09:30.358Z,293.90
2022-07-26T06:10:30.436Z,332.43
2022-07-26T06:11:30.491Z,347.13
2022-07-26T06:12:30.565Z,358.79
2022-07-26T06:13:29.599Z,383.50
2022-07-26T06:14:29.643Z,405.16
2022-07-26T06:15:29.715Z,414.61
2022-07-26T06:16:29.782Z,438.26
2022-07-26T06:17:30.080Z,471.24
2022-07-26T06:18:29.932Z,498.47
2022-07-26T06:19:29.929Z,501.61
2022-07-26T06:20:29.987Z,558.40
2022-07-26T06:21:30.021Z,509.66
2022-07-26T06:22:30.088Z,397.38
2022-07-26T06:23:30.840Z,371.42
2022-07-26T06:24:30.212Z,371.37
2022-07-26T06:25:30.239Z,370.44
2022-07-26T06:26:30.295Z,449.83
2022-07-26T06:27:30.354Z,468.27
2022-07-26T06:28:29.360Z,465.50
2022-07-26T06:29:32.187Z,483.49
2022-07-26T06:30:29.456Z,529.18
2022-07-26T06:31:29.544Z,580.58
2022-07-26T06:32:29.523Z,610.90
2022-07-26T06:33:29.543Z,610.31
2022-07-26T06:34:30.551Z,560.72
2022-07-26T06:35:29.644Z,568.54
2022-07-26T06:36:31.139Z,597.79
2022-07-26T06:37:29.733Z,637.68
2022-07-26T06:38:29.776Z,652.98
2022-07-26T06:39:29.801Z,609.23
2022-07-26T06:40:29.864Z,544.45
2022-07-26T06:41:29.923Z,510.21
2022-07-26T06:42:29.982Z,475.35
2022-07-26T06:43:30.039Z,510.59
2022-07-26T06:44:30.105Z,561.36
2022-07-26T06:45:30.301Z,662.66
2022-07-26T06:46:29.233Z,618.18
2022-07-26T06:47:29.233Z,566.56
2022-07-26T06:48:29.364Z,553.55
2022-07-26T06:49:29.429Z,524.02
2022-07-26T06:50:29.479Z,505.14
2022-07-26T06:51:29.479Z,520.00
2022-07-26T06:52:29.550Z,523.73
2022-07-26T06:53:29.597Z,493.18
2022-07-26T06:54:29.646Z,459.57
2022-07-26T06:55:29.727Z,434.06
2022-07-26T06:56:29.780Z,428.77
2022-07-26T06:57:29.819Z,441.38
2022-07-26T06:58:30.825Z,441.49
2022-07-26T06:59:29.922Z,420.58
2022-07-26T07:00:29.965Z,416.38
2022-07-26T07:01:58.120Z,413.36
2022-07-26T07:02:30.034Z,406.30
2022-07-26T07:03:29.087Z,388.27
2022-07-26T07:04:29.218Z,363.17
2022-07-26T07:05:31.143Z,332.99
2022-07-26T07:06:29.256Z,320.24
2022-07-26T07:07:29.274Z,303.71
2022-07-26T07:08:29.320Z,298.47
2022-07-26T07:09:29.371Z,296.65
2022-07-26T07:10:29.425Z,302.63
2022-07-26T07:11:29.497Z,313.63
2022-07-26T07:12:29.521Z,321.72
2022-07-26T07:13:29.574Z,319.05
2022-07-26T07:14:29.602Z,316.30
2022-07-26T07:15:29.654Z,314.52
2022-07-26T07:16:29.788Z,296.11
2022-07-26T07:17:29.756Z,265.11
2022-07-26T07:18:28.766Z,248.36
2022-07-26T07:19:28.811Z,247.65
2022-07-26T07:20:28.851Z,251.81
2022-07-26T07:21:28.907Z,266.44
2022-07-26T07:22:29.010Z,283.84
2022-07-26T07:23:29.004Z,296.40
2022-07-26T07:24:29.164Z,300.88
2022-07-26T07:25:30.947Z,302.02
2022-07-26T07:26:29.166Z,312.04
2022-07-26T07:27:29.212Z,327.74
2022-07-26T07:28:29.252Z,360.94
2022-07-26T07:29:29.328Z,367.72
2022-07-26T07:30:29.337Z,371.39
2022-07-26T07:31:30.454Z,365.53
2022-07-26T07:32:29.566Z,361.05
2022-07-26T07:33:32.091Z,372.00
2022-07-26T07:34:30.496Z,383.10
2022-07-26T07:35:31.927Z,389.60
2022-07-26T07:36:28.547Z,398.22
2022-07-26T07:37:28.566Z,410.58
2022-07-26T07:38:29.621Z,425.42
2022-07-26T07:39:38.369Z,432.27
2022-07-26T07:40:30.150Z,425.20
2022-07-26T07:41:28.740Z,423.14
2022-07-26T07:42:28.748Z,439.63
2022-07-26T07:43:28.786Z,461.36
2022-07-26T07:44:28.857Z,480.10
2022-07-26T07:45:28.849Z,503.21
2022-07-26T07:46:28.977Z,518.66
2022-07-26T07:47:28.960Z,524.01
2022-07-26T07:48:29.078Z,525.80
2022-07-26T07:49:29.135Z,526.11
2022-07-26T07:50:29.137Z,524.13
2022-07-26T07:51:29.187Z,529.26
2022-07-26T07:52:29.215Z,531.15
2022-07-26T07:53:30.944Z,535.08
2022-07-26T07:54:28.268Z,540.57
2022-07-26T07:55:44.160Z,553.88
2022-07-26T07:56:29.320Z,560.82
2022-07-26T07:57:28.357Z,554.68
2022-07-26T07:58:28.398Z,526.90
2022-07-26T07:59:28.437Z,505.70
2022-07-26T08:00:28.529Z,490.41
2022-07-26T08:01:40.052Z,490.68
2022-07-26T08:02:29.596Z,484.77
2022-07-26T08:03:38.606Z,481.03
2022-07-26T08:04:29.760Z,482.17
2022-07-26T08:05:31.194Z,501.73
2022-07-26T08:06:28.770Z,532.75
2022-07-26T08:07:33.033Z,572.90
2022-07-26T08:08:29.851Z,541.83
2022-07-26T08:09:29.869Z,499.86
2022-07-26T08:10:29.012Z,454.34
2022-07-26T08:11:30.025Z,454.26
2022-07-26T08:12:28.029Z,469.15
2022-07-26T08:13:28.093Z,462.04
2022-07-26T08:14:28.108Z,446.90
2022-07-26T08:15:28.141Z,454.19
2022-07-26T08:16:28.284Z,461.73
2022-07-26T08:17:29.170Z,465.17
2022-07-26T08:18:28.265Z,468.38
2022-07-26T08:19:31.037Z,503.42
2022-07-26T08:20:29.281Z,570.71
2022-07-26T08:21:29.117Z,600.41
2022-07-26T08:22:28.339Z,608.77
2022-07-26T08:23:28.363Z,622.38
2022-07-26T08:24:28.383Z,636.29
2022-07-26T08:25:28.444Z,652.50
2022-07-26T08:26:28.451Z,667.18
2022-07-26T08:27:28.511Z,644.04
2022-07-26T08:29:29.553Z,743.57
2022-07-26T08:30:28.588Z,748.71
2022-07-26T08:31:28.801Z,753.50
2022-07-26T08:32:28.654Z,740.91
2022-07-26T08:33:28.703Z,777.70
2022-07-26T08:34:28.751Z,827.60
2022-07-26T08:35:27.731Z,762.79
2022-07-26T08:36:32.151Z,824.84
2022-07-26T08:37:28.841Z,725.41
2022-07-26T08:38:27.879Z,715.59
2022-07-26T08:39:27.926Z,765.23
2022-07-26T08:40:27.965Z,831.18
2022-07-26T08:41:28.015Z,875.23
2022-07-26T08:42:28.068Z,825.85
2022-07-26T08:43:28.141Z,811.41
2022-07-26T08:44:28.156Z,982.89
2022-07-26T08:45:28.194Z,755.57
2022-07-26T08:46:28.440Z,750.20
2022-07-26T08:47:37.792Z,741.89
2022-07-26T08:48:29.423Z,731.65
2022-07-26T08:49:28.479Z,739.00
2022-07-26T08:50:28.389Z,692.61
2022-07-26T08:51:28.418Z,710.15
2022-07-26T08:52:28.448Z,744.00
2022-07-26T08:53:28.490Z,760.71
2022-07-26T08:54:27.519Z,1065.91
2022-07-26T08:55:32.248Z,1037.66
2022-07-26T08:56:28.545Z,754.46
2022-07-26T08:57:27.578Z,778.33
2022-07-26T08:58:27.599Z,1186.01
2022-07-26T08:59:27.632Z,765.31
2022-07-26T09:00:27.731Z,877.02
2022-07-26T09:01:27.747Z,1343.79
2022-07-26T09:02:27.705Z,1324.31
2022-07-26T09:03:27.752Z,1056.17
2022-07-26T09:04:32.593Z,697.46
2022-07-26T09:05:28.802Z,691.22
2022-07-26T09:06:28.165Z,705.44
2022-07-26T09:07:27.810Z,724.60
2022-07-26T09:08:27.813Z,754.73
2022-07-26T09:09:27.856Z,847.54
2022-07-26T09:10:27.836Z,1550.48
2022-07-26T09:11:27.849Z,1398.08
2022-07-26T09:12:27.860Z,913.85
2022-07-26T09:13:27.859Z,1549.08
2022-07-26T09:14:27.906Z,1186.35
2022-07-26T09:15:27.919Z,1090.36
2022-07-26T09:16:28.006Z,965.06
2022-07-26T09:17:27.950Z,934.62
2022-07-26T09:18:27.983Z,853.97
2022-07-26T09:19:28.032Z,1026.70
2022-07-26T09:20:28.584Z,778.11
2022-07-26T09:21:28.071Z,729.60
2022-07-26T09:22:28.092Z,708.42
2022-07-26T09:23:27.083Z,678.05
2022-07-26T09:24:27.113Z,643.48
2022-07-26T09:25:27.165Z,624.97
2022-07-26T09:26:27.149Z,690.53
2022-07-26T09:27:28.334Z,742.50
2022-07-26T09:28:27.185Z,768.99
2022-07-26T09:29:27.203Z,751.19
2022-07-26T09:30:27.243Z,728.31
2022-07-26T09:31:27.311Z,750.07
2022-07-26T09:32:27.283Z,798.99
2022-07-26T09:33:27.325Z,813.60
2022-07-26T09:34:27.354Z,826.14
2022-07-26T09:36:28.442Z,1535.89
2022-07-26T09:37:27.452Z,1541.58
2022-07-26T09:38:27.483Z,1557.63
2022-07-26T09:39:34.104Z,1567.77
2022-07-26T09:40:28.531Z,1614.81
2022-07-26T09:41:27.559Z,1612.62
2022-07-26T09:42:29.425Z,1274.50
2022-07-26T09:43:27.607Z,1005.16
2022-07-26T09:44:27.616Z,1108.82
2022-07-26T09:45:27.648Z,1282.22
2022-07-26T09:46:27.714Z,1212.00
2022-07-26T09:47:27.689Z,850.67
2022-07-26T09:48:33.091Z,821.48
2022-07-26T09:49:40.306Z,785.10
2022-07-26T09:50:28.827Z,791.75
2022-07-26T09:51:26.726Z,725.83
2022-07-26T09:52:27.789Z,685.15
2022-07-26T09:53:26.869Z,653.17
2022-07-26T09:54:26.951Z,720.55
2022-07-26T09:55:29.209Z,744.31
2022-07-26T09:56:28.089Z,794.27
2022-07-26T09:57:27.148Z,1541.79
2022-07-26T09:58:27.241Z,1526.59
2022-07-26T09:59:27.287Z,1507.72
2022-07-26T10:00:27.368Z,1517.07
2022-07-26T10:01:27.553Z,1504.03
2022-07-26T10:02:27.563Z,1485.16
2022-07-26T10:03:26.584Z,1432.55
2022-07-26T10:04:26.679Z,1458.73
2022-07-26T10:05:26.749Z,1425.94
2022-07-26T10:06:30.360Z,1448.54
2022-07-26T10:07:26.881Z,1438.97
2022-07-26T10:08:26.948Z,1452.11
2022-07-26T10:09:27.047Z,1440.14
2022-07-26T10:10:27.101Z,967.91
2022-07-26T10:11:27.160Z,1410.12
2022-07-26T10:12:30.452Z,1430.15
2022-07-26T10:13:27.322Z,1412.25
2022-07-26T10:14:27.395Z,1413.40
2022-07-26T10:15:27.406Z,1407.94
2022-07-26T10:16:26.496Z,1404.30
2022-07-26T10:17:29.051Z,1157.48
2022-07-26T10:18:26.546Z,1426.79
2022-07-26T10:19:26.582Z,1407.59
2022-07-26T10:20:26.661Z,1301.53
2022-07-26T10:21:26.673Z,1424.13
2022-07-26T10:22:26.721Z,1389.59
2022-07-26T10:23:26.773Z,1112.92
2022-07-26T10:24:26.835Z,892.34
2022-07-26T10:25:26.853Z,1085.16
2022-07-26T10:26:26.904Z,1183.74
2022-07-26T10:27:26.976Z,1166.23
2022-07-26T10:28:27.013Z,1267.72
2022-07-26T10:29:27.057Z,576.25
2022-07-26T10:30:33.921Z,542.11
2022-07-26T10:31:28.185Z,533.34
2022-07-26T10:32:27.165Z,528.35
2022-07-26T10:33:27.200Z,533.08
2022-07-26T10:34:26.173Z,543.06
2022-07-26T10:35:26.346Z,565.39
2022-07-26T10:36:26.308Z,571.83
2022-07-26T10:37:26.304Z,557.89
2022-07-26T10:38:26.315Z,552.65
2022-07-26T10:39:26.347Z,549.52
2022-07-26T10:40:26.376Z,549.82
2022-07-26T10:41:26.438Z,551.05
2022-07-26T10:42:26.456Z,538.31
2022-07-26T10:43:42.849Z,508.80
2022-07-26T10:44:27.537Z,510.28
2022-07-26T10:45:26.586Z,523.21
2022-07-26T10:46:26.673Z,544.34
2022-07-26T10:47:28.119Z,569.02
2022-07-26T10:48:26.651Z,584.81
2022-07-26T10:49:26.681Z,591.21
2022-07-26T10:50:26.693Z,616.04
2022-07-26T10:51:26.722Z,626.82
2022-07-26T10:52:26.730Z,621.37
2022-07-26T10:53:26.732Z,607.47
2022-07-26T10:54:26.747Z,559.77
2022-07-26T10:55:26.802Z,512.93
2022-07-26T10:56:31.187Z,486.92
2022-07-26T10:57:27.838Z,472.24
2022-07-26T10:58:26.870Z,479.40
2022-07-26T10:59:53.288Z,515.53
2022-07-26T11:00:26.864Z,542.48
2022-07-26T11:01:25.925Z,561.50
2022-07-26T11:02:25.968Z,571.29
2022-07-26T11:03:25.946Z,574.38
2022-07-26T11:04:25.961Z,575.01
2022-07-26T11:05:26.942Z,580.29
2022-07-26T11:06:26.014Z,605.74
2022-07-26T11:07:26.054Z,632.71
2022-07-26T11:08:26.094Z,660.08
2022-07-26T11:09:26.121Z,687.28
2022-07-26T11:10:26.193Z,711.71
2022-07-26T11:11:26.187Z,731.21
2022-07-26T11:12:26.212Z,745.28
2022-07-26T11:13:26.241Z,762.91
2022-07-26T11:14:26.269Z,789.13
2022-07-26T11:15:26.302Z,827.60
2022-07-26T11:16:26.363Z,904.92
2022-07-26T11:17:26.440Z,982.13
2022-07-26T11:18:26.421Z,939.57
2022-07-26T11:19:26.455Z,919.20
2022-07-26T11:20:29.870Z,897.20
2022-07-26T11:21:26.542Z,890.83
2022-07-26T11:22:25.551Z,896.49
2022-07-26T11:23:25.624Z,927.15
2022-07-26T11:24:25.622Z,942.68
2022-07-26T11:25:25.647Z,943.39
2022-07-26T11:26:25.697Z,962.11
2022-07-26T11:27:25.725Z,991.74
2022-07-26T11:28:25.782Z,975.63
2022-07-26T11:29:25.796Z,971.64
2022-07-26T11:30:26.840Z,965.98
2022-07-26T11:31:49.771Z,962.94
2022-07-26T11:32:27.003Z,1000.39
2022-07-26T11:33:25.964Z,927.04
2022-07-26T11:34:26.028Z,865.33
2022-07-26T11:35:30.017Z,851.42
2022-07-26T11:36:26.110Z,841.91
2022-07-26T11:37:26.130Z,838.80
2022-07-26T11:38:27.146Z,844.54
2022-07-26T11:39:26.223Z,851.34
2022-07-26T11:40:26.242Z,854.58
2022-07-26T11:41:34.234Z,853.68
2022-07-26T11:42:26.287Z,861.73
2022-07-26T11:43:25.304Z,886.47
2022-07-26T11:44:25.372Z,905.68
2022-07-26T11:45:25.331Z,927.09
2022-07-26T11:46:25.428Z,944.36
2022-07-26T11:47:26.614Z,958.76
2022-07-26T11:48:25.461Z,959.81
2022-07-26T11:49:52.457Z,963.29
2022-07-26T11:50:26.544Z,982.41
2022-07-26T11:51:25.565Z,1000.01
2022-07-26T11:52:25.873Z,1024.54
2022-07-26T11:53:25.651Z,1044.47
2022-07-26T11:54:25.702Z,1077.05
2022-07-26T11:55:25.705Z,1128.08
2022-07-26T11:56:25.735Z,1436.62
2022-07-26T11:57:25.772Z,1635.54
2022-07-26T11:58:25.791Z,1142.18
2022-07-26T11:59:25.867Z,1131.22
2022-07-26T12:00:25.880Z,1161.80
2022-07-26T12:01:25.927Z,1169.35
2022-07-26T12:02:25.965Z,1189.20
2022-07-26T12:03:25.993Z,1151.18
2022-07-26T12:04:25.186Z,1144.35
2022-07-26T12:05:25.174Z,1149.92
2022-07-26T12:06:25.097Z,1363.06
2022-07-26T12:07:25.124Z,1159.22
2022-07-26T12:08:25.165Z,1448.36
2022-07-26T12:09:25.193Z,1069.71
2022-07-26T12:10:25.234Z,1158.92
2022-07-26T12:11:25.621Z,1052.87
2022-07-26T12:12:25.253Z,991.21
2022-07-26T12:13:25.274Z,940.03
2022-07-26T12:14:25.334Z,984.29
2022-07-26T12:15:25.543Z,991.29
2022-07-26T12:16:25.398Z,1593.90
2022-07-26T12:17:25.415Z,1326.46
2022-07-26T12:18:25.447Z,1448.42
2022-07-26T12:19:25.468Z,1507.68
2022-07-26T12:20:25.498Z,1249.11
2022-07-26T12:21:25.517Z,1290.52
2022-07-26T12:22:25.818Z,1534.12
2022-07-26T12:23:25.569Z,1419.06
2022-07-26T12:24:25.617Z,1088.63
2022-07-26T12:25:25.647Z,1116.77
2022-07-26T12:26:25.682Z,1424.39
2022-07-26T12:27:25.679Z,1344.10
2022-07-26T12:28:24.679Z,1308.76
2022-07-26T12:29:24.698Z,1330.67
2022-07-26T12:30:24.711Z,1396.26
2022-07-26T12:31:24.762Z,1424.42
2022-07-26T12:32:24.704Z,1432.71
2022-07-26T12:33:24.723Z,1441.59
2022-07-26T12:34:24.759Z,1445.75
2022-07-26T12:35:24.742Z,1421.25
2022-07-26T12:36:27.627Z,590.30
2022-07-26T12:37:32.574Z,445.30
2022-07-26T12:38:25.789Z,404.22
2022-07-26T12:39:24.789Z,348.98
2022-07-26T12:40:24.823Z,286.26
2022-07-26T12:41:24.863Z,255.33
2022-07-26T12:42:33.249Z,239.60
2022-07-26T12:43:25.872Z,233.64
2022-07-26T12:44:24.903Z,269.95
2022-07-26T12:45:24.902Z,320.48
2022-07-26T12:46:25.009Z,365.22
2022-07-26T12:47:25.074Z,407.88
2022-07-26T12:48:24.943Z,435.94
2022-07-26T12:49:25.091Z,464.54
2022-07-26T12:50:24.950Z,495.09
2022-07-26T12:51:24.968Z,525.54
2022-07-26T12:52:24.982Z,554.41
2022-07-26T12:53:24.975Z,588.50